Time;durP1;ratioP1;P1;durP2;ratioP2;P2;SDS_P1;SDS_P2;PMS_P1;PMS_P2;Temp;Humidity;BMP_temperature;BMP_pressure;BME280_temperature;BME280_humidity;BME280_pressure;Samples;Min_cycle;Max_cycle;Signal;HPM_P1;HPM_P2
2021/07/13 00:02:14;;;;;;;4.53;2.90;;;;;;;18.40;85.82;95463.47;5042742;28;20065;-77
2021/07/13 00:04:39;;;;;;;4.32;2.75;;;;;;;18.43;85.46;95467.53;5013433;28;20028;-77
2021/07/13 00:07:06;;;;;;;3.58;2.22;;;;;;;18.41;86.54;95470.44;5017450;28;20037;-78
2021/07/13 00:09:32;;;;;;;4.90;2.63;;;;;;;18.48;86.03;95481.78;5026103;28;20025;-77
2021/07/13 00:11:58;;;;;;;4.07;2.58;;;;;;;18.46;86.13;95481.19;5019060;28;20029;-77
2021/07/13 00:14:26;;;;;;;5.10;3.20;;;;;;;18.45;86.49;95476.91;5027387;28;20033;-78
2021/07/13 00:16:51;;;;;;;4.45;2.63;;;;;;;18.34;87.11;95478.50;5030500;28;20021;-77
2021/07/13 00:19:18;;;;;;;6.70;2.95;;;;;;;18.16;89.61;95475.06;5022159;28;20516;-78
2021/07/13 00:21:44;;;;;;;3.75;2.63;;;;;;;18.03;90.09;95487.50;5063636;28;20025;-77
2021/07/13 00:24:10;;;;;;;4.97;2.10;;;;;;;18.01;91.80;95475.47;5011438;28;20037;-77
2021/07/13 00:26:37;;;;;;;4.60;2.42;;;;;;;17.99;92.06;95470.38;5030181;28;20025;-77
2021/07/13 00:29:06;;;;;;;5.78;2.38;;;;;;;17.87;93.01;95467.66;5030375;28;20029;-77
2021/07/13 00:31:33;;;;;;;6.45;2.63;;;;;;;17.95;93.11;95489.66;5027518;28;20024;-77
2021/07/13 00:33:58;;;;;;;5.22;2.80;;;;;;;17.84;94.01;95494.72;5013657;28;20029;-77
2021/07/13 00:36:25;;;;;;;6.65;2.92;;;;;;;17.86;94.06;95494.47;5033367;28;20024;-77
2021/07/13 00:38:51;;;;;;;3.58;2.40;;;;;;;17.97;93.23;95501.69;5033282;28;20098;-77
2021/07/13 00:41:17;;;;;;;5.68;2.60;;;;;;;17.96;92.35;95481.44;5046299;28;20390;-77
2021/07/13 00:43:42;;;;;;;4.78;2.53;;;;;;;17.97;92.56;95475.09;5012980;28;20043;-77
2021/07/13 00:46:08;;;;;;;3.85;2.53;;;;;;;18.05;92.50;95474.78;5016305;28;21507;-77
2021/07/13 00:48:34;;;;;;;5.55;2.53;;;;;;;17.90;94.23;95479.69;5018182;28;20520;-77
2021/07/13 00:51:03;;;;;;;5.88;2.90;;;;;;;17.74;95.29;95490.88;5060415;28;20020;-79
2021/07/13 00:53:29;;;;;;;6.45;2.97;;;;;;;17.74;95.08;95490.88;5042673;28;20051;-77
2021/07/13 00:55:58;;;;;;;7.68;3.05;;;;;;;17.77;94.14;95485.16;5032473;28;20091;-77
2021/07/13 00:58:25;;;;;;;4.95;2.50;;;;;;;17.78;93.62;95489.47;5029006;28;20033;-78
2021/07/13 01:00:52;;;;;;;5.45;3.13;;;;;;;17.74;93.76;95478.44;5048885;28;20086;-77
2021/07/13 01:03:18;;;;;;;5.50;2.65;;;;;;;17.75;93.83;95472.06;5016716;28;20091;-77
2021/07/13 01:05:47;;;;;;;4.45;2.75;;;;;;;17.74;94.24;95475.78;5051420;28;20485;-77
2021/07/13 01:08:33;;;;;;;4.22;2.58;;;;;;;17.65;95.50;95488.53;5037117;28;20033;-78
2021/07/13 01:11:21;;;;;;;4.38;2.72;;;;;;;17.59;96.56;95483.28;5021004;28;20060;-77
2021/07/13 01:14:06;;;;;;;5.28;2.90;;;;;;;17.69;97.28;95478.25;5049576;28;20033;-77
2021/07/13 01:16:50;;;;;;;5.45;3.22;;;;;;;17.57;99.14;95470.22;5037200;28;20437;-78
2021/07/13 01:19:33;;;;;;;6.07;3.25;;;;;;;17.72;99.20;95472.50;5020095;28;20044;-77
2021/07/13 01:22:11;;;;;;;5.38;3.05;;;;;;;17.53;100.00;95474.34;5020361;28;20056;-77
2021/07/13 01:25:11;;;;;;;8.07;3.45;;;;;;;17.53;100.00;95474.34;5036081;28;20056;-77
2021/07/13 01:27:48;;;;;;;8.60;3.58;;;;;;;17.50;100.00;95466.81;5022739;28;20047;-77
2021/07/13 01:30:16;;;;;;;5.85;3.40;;;;;;;17.57;100.00;95454.28;5051756;28;20048;-77
2021/07/13 01:32:47;;;;;;;7.13;3.28;;;;;;;17.59;100.00;95451.38;5032145;28;20112;-77
2021/07/13 01:35:16;;;;;;;5.80;3.00;;;;;;;17.61;100.00;95470.59;5036026;28;20396;-80
2021/07/13 01:37:46;;;;;;;5.70;3.20;;;;;;;17.43;100.00;95477.50;5036425;28;20041;-77
2021/07/13 01:40:12;;;;;;;5.38;3.10;;;;;;;17.49;100.00;95486.47;5032418;28;20094;-77
2021/07/13 01:42:39;;;;;;;5.60;2.85;;;;;;;17.42;100.00;95491.84;5019553;28;20031;-77
2021/07/13 01:45:07;;;;;;;4.75;3.08;;;;;;;17.37;100.00;95480.22;5028045;28;20094;-77
2021/07/13 01:47:38;;;;;;;4.78;3.10;;;;;;;17.30;100.00;95482.16;5019501;28;20052;-77
2021/07/13 01:50:07;;;;;;;5.38;3.00;;;;;;;17.41;100.00;95486.75;5044768;28;20083;-77
2021/07/13 01:52:34;;;;;;;5.50;3.05;;;;;;;17.34;100.00;95486.81;5054124;28;20493;-77
2021/07/13 01:55:02;;;;;;;4.55;2.95;;;;;;;17.33;100.00;95487.03;5036331;28;20037;-77
2021/07/13 01:57:29;;;;;;;4.95;3.25;;;;;;;17.35;100.00;95477.00;5035269;28;20438;-77
2021/07/13 01:59:57;;;;;;;6.30;2.92;;;;;;;17.35;100.00;95469.03;5022283;28;20061;-77
2021/07/13 02:02:26;;;;;;;5.72;3.55;;;;;;;17.27;100.00;95470.13;5019344;28;20108;-77
2021/07/13 02:04:53;;;;;;;5.47;3.38;;;;;;;17.19;100.00;95465.09;5051714;28;20529;-77
2021/07/13 02:07:19;;;;;;;5.03;3.17;;;;;;;17.23;100.00;95458.28;5016920;28;20025;-77
2021/07/13 02:09:45;;;;;;;6.82;3.60;;;;;;;17.29;100.00;95462.75;5035200;28;20040;-77
2021/07/13 02:12:11;;;;;;;6.93;3.67;;;;;;;17.29;100.00;95453.97;5036130;28;20033;-77
2021/07/13 02:14:37;;;;;;;6.57;3.60;;;;;;;17.18;100.00;95458.16;5018557;28;20036;-77
2021/07/13 02:17:05;;;;;;;7.20;4.03;;;;;;;17.08;100.00;95455.19;5033022;28;20029;-77
2021/07/13 02:19:31;;;;;;;5.97;3.75;;;;;;;17.04;100.00;95460.13;5035821;28;20120;-77
2021/07/13 02:21:57;;;;;;;6.95;3.97;;;;;;;17.01;100.00;95471.19;5033239;28;20037;-77
2021/07/13 02:24:27;;;;;;;6.05;3.95;;;;;;;16.93;100.00;95466.97;5018386;28;20036;-77
2021/07/13 02:27:02;;;;;;;6.50;4.47;;;;;;;16.99;100.00;95467.94;5045154;28;20441;-77
2021/07/13 02:29:35;;;;;;;7.53;3.95;;;;;;;17.04;100.00;95454.00;5021186;28;20067;-77
2021/07/13 02:32:05;;;;;;;7.30;4.65;;;;;;;17.12;100.00;95448.41;5033469;28;20033;-79
2021/07/13 02:34:35;;;;;;;6.10;4.50;;;;;;;17.03;100.00;95450.50;5035905;28;20597;-77
2021/07/13 02:37:03;;;;;;;6.95;4.50;;;;;;;17.11;100.00;95452.91;5032301;28;20099;-78
2021/07/13 02:39:31;;;;;;;7.97;4.90;;;;;;;17.17;100.00;95445.91;5034953;28;20120;-77
2021/07/13 02:41:59;;;;;;;6.10;4.72;;;;;;;17.19;100.00;95452.63;5034749;28;20068;-77
2021/07/13 02:44:28;;;;;;;8.07;5.00;;;;;;;17.34;100.00;95449.63;5018131;28;20021;-77
2021/07/13 02:46:56;;;;;;;7.20;5.18;;;;;;;17.25;100.00;95463.41;5022495;28;20037;-77
2021/07/13 02:49:25;;;;;;;11.05;5.97;;;;;;;17.14;100.00;95476.38;5014396;28;20044;-77
2021/07/13 02:51:53;;;;;;;10.10;6.78;;;;;;;17.23;100.00;95481.41;5020526;28;20112;-78
2021/07/13 02:54:25;;;;;;;10.13;6.32;;;;;;;17.14;100.00;95491.53;5034953;28;20115;-77
2021/07/13 02:56:52;;;;;;;8.43;7.18;;;;;;;17.12;100.00;95501.53;5018650;28;20383;-77
2021/07/13 02:59:23;;;;;;;8.00;6.82;;;;;;;17.12;100.00;95504.19;5034640;28;20135;-77
2021/07/13 03:01:49;;;;;;;9.27;8.20;;;;;;;17.08;100.00;95503.81;5021374;28;20025;-77
2021/07/13 03:04:16;;;;;;;9.82;7.68;;;;;;;17.15;100.00;95504.56;5046469;28;20048;-77
2021/07/13 03:06:42;;;;;;;10.70;7.22;;;;;;;17.11;100.00;95503.38;5026689;28;20454;-77
2021/07/13 03:09:08;;;;;;;9.13;6.97;;;;;;;17.19;100.00;95505.75;5033893;28;20353;-77
2021/07/13 03:11:35;;;;;;;9.60;7.40;;;;;;;17.20;100.00;95507.41;5014910;28;20108;-77
2021/07/13 03:14:03;;;;;;;9.45;8.13;;;;;;;17.26;100.00;95499.56;5033577;28;20025;-77
2021/07/13 03:16:34;;;;;;;9.80;6.25;;;;;;;17.23;100.00;95500.81;5045342;28;20033;-77
2021/07/13 03:19:00;;;;;;;8.63;6.30;;;;;;;17.18;100.00;95493.50;5051982;28;20045;-77
2021/07/13 03:21:29;;;;;;;9.85;6.15;;;;;;;17.18;100.00;95488.19;5034366;28;20020;-77
2021/07/13 03:24:00;;;;;;;10.10;6.38;;;;;;;17.25;100.00;95489.97;5035870;28;20612;-77
2021/07/13 03:26:29;;;;;;;9.07;5.93;;;;;;;17.22;100.00;95487.75;5022410;28;20029;-77
2021/07/13 03:28:58;;;;;;;7.88;6.00;;;;;;;17.25;100.00;95482.00;5017548;28;20032;-77
2021/07/13 03:31:25;;;;;;;10.85;5.97;;;;;;;17.32;100.00;95472.94;5052186;28;20032;-77
2021/07/13 03:33:51;;;;;;;10.25;5.75;;;;;;;17.36;100.00;95462.66;5016652;28;20033;-77
2021/07/13 03:36:18;;;;;;;8.90;5.60;;;;;;;17.37;100.00;95465.13;5031032;28;20021;-77
2021/07/13 03:38:44;;;;;;;10.05;5.85;;;;;;;17.39;100.00;95456.91;5018094;28;20048;-77
2021/07/13 03:41:11;;;;;;;9.80;5.90;;;;;;;17.33;100.00;95458.59;5028387;28;20037;-77
2021/07/13 03:43:37;;;;;;;10.82;5.35;;;;;;;17.32;100.00;95449.00;5035524;28;20366;-77
2021/07/13 03:46:03;;;;;;;7.20;4.72;;;;;;;17.37;100.00;95432.41;5033655;28;20036;-77
2021/07/13 03:48:29;;;;;;;7.38;4.35;;;;;;;17.28;100.00;95423.13;5022800;28;20074;-77
2021/07/13 03:50:55;;;;;;;8.93;5.20;;;;;;;17.36;100.00;95415.63;5043905;28;20024;-77
2021/07/13 03:53:20;;;;;;;9.32;4.38;;;;;;;17.33;100.00;95421.41;5043731;28;20024;-77
2021/07/13 03:55:47;;;;;;;8.80;5.07;;;;;;;17.30;100.00;95413.88;5032034;28;20497;-76
2021/07/13 03:58:13;;;;;;;7.55;4.57;;;;;;;17.31;100.00;95404.88;5033655;28;20027;-77
2021/07/13 04:00:38;;;;;;;7.18;4.63;;;;;;;17.31;100.00;95380.97;5055205;28;20033;-77
2021/07/13 04:03:04;;;;;;;8.95;4.22;;;;;;;17.33;100.00;95388.69;5019014;28;20028;-78
2021/07/13 04:05:30;;;;;;;7.63;4.25;;;;;;;17.29;100.00;95401.63;5035444;28;20029;-77
2021/07/13 04:07:56;;;;;;;8.57;4.72;;;;;;;17.23;100.00;95401.69;5018385;28;20028;-77
2021/07/13 04:10:22;;;;;;;10.35;5.07;;;;;;;17.15;100.00;95410.78;5031244;28;20030;-77
2021/07/13 04:12:47;;;;;;;11.82;9.18;;;;;;;17.13;100.00;95407.50;5055791;28;20497;-77
2021/07/13 04:15:13;;;;;;;8.93;6.68;;;;;;;17.11;100.00;95401.63;5034717;28;20064;-77
2021/07/13 04:17:40;;;;;;;6.57;4.80;;;;;;;17.19;100.00;95393.34;5036459;28;20100;-77
2021/07/13 04:20:08;;;;;;;10.50;4.88;;;;;;;17.20;100.00;95384.34;5049627;28;20037;-76
2021/07/13 04:22:34;;;;;;;10.25;4.88;;;;;;;17.20;100.00;95390.50;5051430;28;20059;-77
2021/07/13 04:24:59;;;;;;;7.85;4.43;;;;;;;17.18;100.00;95392.53;5023677;28;20072;-79
2021/07/13 04:27:26;;;;;;;5.78;4.22;;;;;;;17.24;100.00;95406.00;5030602;28;20068;-78
2021/07/13 04:29:52;;;;;;;6.40;4.22;;;;;;;17.24;100.00;95413.97;5053386;28;20033;-78
2021/07/13 04:32:18;;;;;;;9.93;4.75;;;;;;;17.24;100.00;95417.44;5062339;28;20029;-77
2021/07/13 04:34:44;;;;;;;8.20;4.50;;;;;;;17.35;100.00;95410.56;5031313;28;20059;-79
2021/07/13 04:37:09;;;;;;;9.23;4.82;;;;;;;17.37;100.00;95401.34;5028981;28;20032;-77
2021/07/13 04:39:35;;;;;;;6.55;4.25;;;;;;;17.40;100.00;95392.09;5030427;28;20068;-79
2021/07/13 04:42:01;;;;;;;8.07;4.63;;;;;;;17.42;100.00;95392.69;5048990;28;20104;-79
2021/07/13 04:44:26;;;;;;;6.55;4.40;;;;;;;17.43;100.00;95383.69;5018368;28;20375;-77
2021/07/13 04:46:54;;;;;;;7.35;4.20;;;;;;;17.48;100.00;95391.00;5032554;28;20363;-78
2021/07/13 04:49:20;;;;;;;8.15;4.43;;;;;;;17.44;100.00;95398.59;5015656;28;20565;-77
2021/07/13 04:51:46;;;;;;;7.57;4.22;;;;;;;17.42;100.00;95405.97;5033740;28;20013;-77
2021/07/13 04:54:12;;;;;;;6.72;4.05;;;;;;;17.36;100.00;95404.19;5016951;28;20124;-77
2021/07/13 04:56:38;;;;;;;6.93;4.25;;;;;;;17.41;100.00;95396.41;5028128;28;20040;-78
2021/07/13 04:59:03;;;;;;;7.13;4.00;;;;;;;17.32;100.00;95393.22;5048003;28;20493;-77
2021/07/13 05:01:29;;;;;;;7.25;6.05;;;;;;;17.42;100.00;95371.44;5016430;28;20013;-77
2021/07/13 05:03:55;;;;;;;14.15;10.50;;;;;;;17.49;100.00;95368.69;5025426;28;20029;-78
2021/07/13 05:06:20;;;;;;;9.55;7.10;;;;;;;17.52;100.00;95369.06;5029607;28;20017;-78
2021/07/13 05:08:47;;;;;;;6.78;4.32;;;;;;;17.61;100.00;95372.22;5037379;28;20036;-78
2021/07/13 05:11:13;;;;;;;7.45;4.25;;;;;;;17.53;100.00;95373.31;5020166;28;20048;-78
2021/07/13 05:13:38;;;;;;;6.38;4.10;;;;;;;17.56;100.00;95375.53;5035681;28;20040;-78
2021/07/13 05:16:04;;;;;;;7.25;3.83;;;;;;;17.63;100.00;95372.78;5029771;28;20031;-79
2021/07/13 05:18:30;;;;;;;6.18;4.00;;;;;;;17.79;100.00;95379.38;5022429;28;20086;-78
2021/07/13 05:20:59;;;;;;;7.63;4.78;;;;;;;17.82;100.00;95378.94;5035483;28;20033;-78
2021/07/13 05:23:25;;;;;;;7.00;4.45;;;;;;;17.89;100.00;95371.66;5021820;28;20048;-78
2021/07/13 05:25:51;;;;;;;6.43;4.32;;;;;;;18.11;100.00;95372.78;5037648;28;20041;-78
2021/07/13 05:28:17;;;;;;;14.80;12.98;;;;;;;18.23;100.00;95369.34;5017010;28;20037;-78
2021/07/13 05:30:44;;;;;;;7.25;4.97;;;;;;;18.46;98.95;95372.03;5034801;28;20461;-77
2021/07/13 05:33:10;;;;;;;6.88;4.13;;;;;;;18.55;97.80;95369.88;5033467;28;20033;-78
2021/07/13 05:35:36;;;;;;;7.20;5.10;;;;;;;18.52;97.73;95373.78;5024082;28;20032;-78
2021/07/13 05:38:03;;;;;;;7.65;4.95;;;;;;;18.77;95.30;95367.47;5016915;28;20028;-77
2021/07/13 05:40:29;;;;;;;8.25;5.03;;;;;;;18.71;96.02;95363.84;5033364;28;20088;-78
2021/07/13 05:42:55;;;;;;;6.88;4.30;;;;;;;18.77;94.65;95362.13;5041981;28;20119;-77
2021/07/13 05:45:22;;;;;;;7.70;4.32;;;;;;;18.56;96.51;95369.63;5019875;28;20174;-77
2021/07/13 05:47:48;;;;;;;7.38;4.70;;;;;;;18.66;95.73;95362.91;5037513;28;20048;-78
2021/07/13 05:50:14;;;;;;;6.50;4.75;;;;;;;18.58;95.37;95358.75;5018581;28;20115;-77
2021/07/13 05:52:41;;;;;;;7.30;4.03;;;;;;;18.46;97.41;95353.41;5013141;28;20037;-78
2021/07/13 05:55:07;;;;;;;6.20;4.35;;;;;;;18.46;97.13;95361.41;5017841;28;20028;-78
2021/07/13 05:57:33;;;;;;;7.28;4.80;;;;;;;18.48;96.01;95355.84;5014886;28;20033;-78
2021/07/13 05:59:58;;;;;;;6.93;4.72;;;;;;;18.71;95.23;95341.72;5035537;28;20525;-78
2021/07/13 06:02:24;;;;;;;6.15;4.28;;;;;;;18.94;94.22;95341.72;5016070;28;20044;-78
2021/07/13 06:04:51;;;;;;;7.32;4.22;;;;;;;18.99;93.54;95339.19;5052117;28;20500;-78
2021/07/13 06:07:17;;;;;;;7.43;4.53;;;;;;;19.13;93.43;95344.28;5037467;28;20729;-78
2021/07/13 06:09:43;;;;;;;7.20;4.10;;;;;;;19.47;91.18;95334.56;5036947;28;20016;-78
2021/07/13 06:12:09;;;;;;;5.55;3.83;;;;;;;19.79;89.35;95337.63;5037765;28;20033;-77
2021/07/13 06:14:36;;;;;;;5.28;3.60;;;;;;;20.39;86.37;95334.38;5022647;28;20088;-78
2021/07/13 06:17:07;;;;;;;4.93;3.65;;;;;;;20.65;85.09;95351.63;5037519;28;20414;-78
2021/07/13 06:19:34;;;;;;;5.15;3.72;;;;;;;20.99;82.89;95358.78;5039240;28;20037;-77
2021/07/13 06:22:01;;;;;;;6.43;3.92;;;;;;;20.32;85.61;95360.44;5035836;28;20029;-77
2021/07/13 06:24:26;;;;;;;6.57;4.53;;;;;;;20.64;84.10;95362.56;5031309;28;20032;-78
2021/07/13 06:26:52;;;;;;;5.70;3.67;;;;;;;20.45;84.42;95368.09;5028647;28;20025;-78
2021/07/13 06:29:18;;;;;;;8.27;3.53;;;;;;;21.08;82.68;95365.34;5022608;28;20030;-78
2021/07/13 06:31:44;;;;;;;6.60;3.75;;;;;;;20.81;82.40;95370.56;5037001;28;20202;-78
2021/07/13 06:34:11;;;;;;;6.38;3.65;;;;;;;20.80;80.88;95372.44;5030595;28;20502;-78
2021/07/13 06:36:37;;;;;;;6.07;3.88;;;;;;;20.54;82.73;95375.78;5054807;28;20425;-78
2021/07/13 06:39:03;;;;;;;8.15;4.05;;;;;;;20.16;84.14;95369.25;5037932;28;20040;-78
2021/07/13 06:41:29;;;;;;;7.70;3.58;;;;;;;20.17;84.58;95376.19;5050379;28;20679;-78
2021/07/13 06:43:55;;;;;;;6.85;4.18;;;;;;;20.15;83.61;95368.41;5048089;28;20060;-78
2021/07/13 06:46:20;;;;;;;6.40;3.85;;;;;;;20.15;83.93;95368.41;5023042;28;20032;-78
2021/07/13 06:48:46;;;;;;;7.10;3.80;;;;;;;20.22;83.40;95363.75;5021811;28;20033;-78
2021/07/13 06:51:12;;;;;;;6.00;3.78;;;;;;;19.98;84.22;95371.03;5038093;28;20032;-77
2021/07/13 06:53:38;;;;;;;5.85;3.35;;;;;;;20.15;84.74;95372.94;5022087;28;20831;-77
2021/07/13 06:56:04;;;;;;;6.57;3.92;;;;;;;19.77;86.28;95371.72;5035939;28;20036;-77
2021/07/13 06:58:29;;;;;;;7.05;3.80;;;;;;;19.81;86.46;95366.72;5045981;28;20040;-77
2021/07/13 07:00:55;;;;;;;6.22;3.75;;;;;;;20.12;84.80;95378.75;5023962;28;20496;-78
2021/07/13 07:03:21;;;;;;;5.90;3.63;;;;;;;19.53;87.85;95378.97;5018929;28;20120;-77
2021/07/13 07:05:46;;;;;;;5.72;2.97;;;;;;;19.48;88.44;95382.34;5041256;28;20025;-77
2021/07/13 07:08:12;;;;;;;5.72;3.83;;;;;;;19.58;87.36;95384.38;5035166;28;20028;-77
2021/07/13 07:10:38;;;;;;;5.53;3.80;;;;;;;19.40;89.05;95382.69;5033188;28;20100;-77
2021/07/13 07:13:03;;;;;;;4.50;2.75;;;;;;;19.34;90.86;95383.63;5043845;28;20032;-78
2021/07/13 07:15:29;;;;;;;8.82;6.05;;;;;;;19.24;90.28;95383.41;5026318;28;20063;-78
2021/07/13 07:17:55;;;;;;;11.73;8.35;;;;;;;19.28;89.74;95387.22;5035449;28;20056;-77
2021/07/13 07:20:27;;;;;;;5.20;3.78;;;;;;;19.16;91.99;95383.78;5018391;28;20052;-77
2021/07/13 07:22:57;;;;;;;5.43;3.95;;;;;;;19.02;92.88;95388.56;5017468;28;20043;-78
2021/07/13 07:25:23;;;;;;;6.07;3.70;;;;;;;18.98;94.44;95384.72;5010225;28;20030;-77
2021/07/13 07:27:51;;;;;;;7.47;4.47;;;;;;;18.76;94.76;95387.16;5021836;28;20120;-78
2021/07/13 07:30:17;;;;;;;5.60;4.18;;;;;;;18.72;94.40;95401.97;5045337;28;20705;-77
2021/07/13 07:32:46;;;;;;;5.80;4.20;;;;;;;18.61;95.68;95399.03;5032025;28;20544;-78
2021/07/13 07:35:13;;;;;;;7.68;3.78;;;;;;;18.58;96.03;95402.16;5036479;28;20032;-78
2021/07/13 07:37:38;;;;;;;6.43;3.80;;;;;;;18.57;96.13;95400.53;5035045;28;20040;-77
2021/07/13 07:40:10;;;;;;;6.70;4.47;;;;;;;18.55;97.27;95407.94;5033826;28;20029;-78
2021/07/13 07:42:38;;;;;;;6.13;3.85;;;;;;;18.52;97.90;95413.72;5045968;28;20067;-77
2021/07/13 07:45:05;;;;;;;5.30;4.22;;;;;;;18.56;97.79;95414.88;5025178;28;20048;-77
2021/07/13 07:47:31;;;;;;;5.65;3.78;;;;;;;18.54;98.53;95426.81;5033322;28;20040;-77
2021/07/13 07:49:56;;;;;;;6.55;4.47;;;;;;;18.50;98.98;95431.78;5030169;28;20072;-77
2021/07/13 07:52:23;;;;;;;5.57;4.13;;;;;;;18.45;99.57;95450.28;5014328;28;20425;-76
2021/07/13 07:54:49;;;;;;;10.05;4.65;;;;;;;18.28;100.00;95460.78;5016347;28;20021;-78
2021/07/13 07:57:15;;;;;;;8.35;4.40;;;;;;;18.12;100.00;95482.69;5029498;28;20044;-78
2021/07/13 07:59:42;;;;;;;7.55;5.65;;;;;;;18.05;100.00;95485.44;5011489;28;20029;-77
2021/07/13 08:02:08;;;;;;;7.13;5.28;;;;;;;18.01;100.00;95489.59;5022723;28;20033;-77
2021/07/13 08:04:35;;;;;;;6.70;4.80;;;;;;;17.88;100.00;95481.78;5016274;28;20083;-77
2021/07/13 08:07:01;;;;;;;7.82;5.65;;;;;;;17.65;100.00;95477.91;5015735;28;20043;-77
2021/07/13 08:09:29;;;;;;;7.30;5.70;;;;;;;17.76;100.00;95470.22;5024165;28;20489;-76
2021/07/13 08:11:55;;;;;;;9.10;5.70;;;;;;;17.66;100.00;95468.88;5046484;28;20025;-78
2021/07/13 08:14:20;;;;;;;7.28;5.88;;;;;;;17.66;100.00;95462.75;5030595;28;20108;-77
2021/07/13 08:16:49;;;;;;;9.68;6.70;;;;;;;17.65;100.00;95440.69;5017664;28;20029;-78
2021/07/13 08:19:15;;;;;;;20.75;14.75;;;;;;;17.91;100.00;95422.81;5016545;28;20079;-78
2021/07/13 08:21:41;;;;;;;8.02;5.72;;;;;;;17.91;100.00;95428.13;5033082;28;20101;-78
2021/07/13 08:24:08;;;;;;;8.77;6.10;;;;;;;17.95;100.00;95445.25;5014150;28;20517;-77
2021/07/13 08:26:34;;;;;;;7.75;5.57;;;;;;;18.08;100.00;95452.25;5013079;28;20123;-80
2021/07/13 08:29:00;;;;;;;8.57;6.20;;;;;;;18.11;100.00;95426.00;5031511;28;20100;-78
2021/07/13 08:31:26;;;;;;;10.77;6.18;;;;;;;18.05;100.00;95387.00;5027540;28;20120;-78
2021/07/13 08:33:52;;;;;;;13.23;7.03;;;;;;;17.99;100.00;95353.31;5035944;28;20053;-78
2021/07/13 08:36:17;;;;;;;11.80;7.40;;;;;;;18.14;100.00;95353.72;5037030;28;20029;-78
2021/07/13 08:38:43;;;;;;;9.43;6.82;;;;;;;18.36;100.00;95361.16;5032542;28;20545;-78
2021/07/13 08:41:09;;;;;;;7.32;6.00;;;;;;;18.42;100.00;95368.22;5028120;28;20493;-78
2021/07/13 08:43:35;;;;;;;9.43;6.32;;;;;;;18.86;100.00;95375.94;5045364;28;20048;-77
2021/07/13 08:46:01;;;;;;;8.80;6.43;;;;;;;19.15;100.00;95368.81;5047871;28;20057;-78
2021/07/13 08:48:27;;;;;;;8.13;5.30;;;;;;;19.38;100.00;95368.78;5043425;28;20031;-77
2021/07/13 08:50:58;;;;;;;8.40;6.88;;;;;;;19.83;100.00;95362.78;5032516;28;20029;-78
2021/07/13 08:53:24;;;;;;;7.75;6.10;;;;;;;19.90;99.48;95368.78;5044936;28;20029;-78
2021/07/13 08:55:54;;;;;;;8.48;6.07;;;;;;;19.94;99.67;95367.22;5011088;28;20021;-78
2021/07/13 08:58:21;;;;;;;7.65;5.50;;;;;;;19.79;96.87;95380.31;5025421;28;20040;-77
2021/07/13 09:00:46;;;;;;;6.05;4.65;;;;;;;19.67;96.28;95395.53;5032356;28;20087;-78
2021/07/13 09:03:15;;;;;;;7.70;4.90;;;;;;;19.66;97.17;95391.25;5015741;28;20029;-78
2021/07/13 09:05:48;;;;;;;7.18;5.18;;;;;;;19.73;96.90;95399.94;5032573;28;20031;-77
2021/07/13 09:08:15;;;;;;;6.75;5.13;;;;;;;19.37;98.96;95417.81;5042292;28;20100;-77
2021/07/13 09:11:04;;;;;;;7.13;4.82;;;;;;;19.46;99.22;95424.41;5031129;28;20017;-77
2021/07/13 09:13:51;;;;;;;8.07;5.47;;;;;;;19.65;100.00;95414.44;5031005;28;20029;-78
2021/07/13 09:16:25;;;;;;;7.72;5.82;;;;;;;19.49;97.14;95412.47;4998886;28;20079;-77
2021/07/13 09:18:57;;;;;;;6.00;4.70;;;;;;;19.91;96.15;95420.28;5011135;28;20104;-78
2021/07/13 09:21:33;;;;;;;6.20;4.97;;;;;;;19.98;95.48;95421.75;5031791;28;20215;-78
2021/07/13 09:24:02;;;;;;;9.20;5.35;;;;;;;19.74;96.98;95431.69;5017471;28;20040;-78
2021/07/13 09:26:47;;;;;;;7.43;4.82;;;;;;;19.68;99.02;95435.28;5016284;28;20033;-78
2021/07/13 09:29:27;;;;;;;6.18;5.15;;;;;;;19.68;97.03;95429.16;5036098;28;20033;-78
2021/07/13 09:31:54;;;;;;;6.50;5.32;;;;;;;19.94;98.08;95428.59;5046873;28;20032;-78
2021/07/13 09:34:19;;;;;;;6.50;4.97;;;;;;;20.24;97.00;95411.56;5019544;28;20028;-77
2021/07/13 09:36:54;;;;;;;14.10;12.15;;;;;;;20.44;94.77;95409.22;5027667;28;20446;-77
2021/07/13 09:39:25;;;;;;;11.20;9.90;;;;;;;20.58;93.85;95414.28;5019333;28;20032;-78
2021/07/13 09:41:54;;;;;;;8.20;5.20;;;;;;;20.50;94.43;95423.50;5035980;28;20063;-78
2021/07/13 09:44:24;;;;;;;5.80;4.72;;;;;;;20.52;95.46;95425.94;5020362;28;20029;-78
2021/07/13 09:46:51;;;;;;;14.60;5.25;;;;;;;20.34;94.88;95438.44;5033859;28;20036;-78
2021/07/13 09:49:21;;;;;;;6.20;4.20;;;;;;;20.08;95.04;95431.00;5032185;28;20036;-78
2021/07/13 09:51:53;;;;;;;6.60;4.68;;;;;;;19.97;96.90;95424.66;5028312;28;20055;-78
2021/07/13 09:54:38;;;;;;;5.28;3.20;;;;;;;19.90;95.46;95440.00;5044446;28;20067;-77
2021/07/13 09:57:12;;;;;;;3.92;2.85;;;;;;;19.90;94.75;95440.81;5015983;28;20041;-77
2021/07/13 09:59:37;;;;;;;4.35;2.60;;;;;;;19.97;94.60;95435.34;5048601;28;20848;-77
2021/07/13 10:02:06;;;;;;;4.88;2.88;;;;;;;19.54;97.62;95442.72;5035406;28;20029;-77
2021/07/13 10:04:33;;;;;;;4.00;2.28;;;;;;;19.73;97.48;95443.41;5017166;28;20063;-78
2021/07/13 10:07:04;;;;;;;3.92;2.95;;;;;;;19.68;97.55;95435.28;5038543;28;20482;-78
2021/07/13 10:09:35;;;;;;;4.68;2.92;;;;;;;20.07;95.45;95426.72;5023005;28;20502;-78
2021/07/13 10:12:01;;;;;;;3.75;2.53;;;;;;;20.08;95.93;95423.00;5018330;28;20025;-78
2021/07/13 10:14:27;;;;;;;4.70;2.97;;;;;;;19.95;96.37;95427.59;5035676;28;20031;-78
2021/07/13 10:16:53;;;;;;;5.20;3.40;;;;;;;19.99;95.53;95425.25;5051476;28;20037;-77
2021/07/13 10:19:19;;;;;;;7.82;5.22;;;;;;;20.10;95.09;95429.72;5019213;28;20537;-78
2021/07/13 10:21:47;;;;;;;5.68;3.33;;;;;;;19.93;95.78;95436.88;5021021;28;20033;-78
2021/07/13 10:24:14;;;;;;;4.45;2.78;;;;;;;20.16;93.29;95428.78;5027166;28;20048;-77
2021/07/13 10:26:42;;;;;;;3.40;2.35;;;;;;;20.36;91.89;95428.31;5034690;28;20029;-77
2021/07/13 10:29:33;;;;;;;3.33;2.40;;;;;;;19.95;93.39;95421.41;5040735;28;20060;-77
2021/07/13 10:32:03;;;;;;;3.53;2.55;;;;;;;20.41;93.35;95408.91;5023074;28;20041;-78
2021/07/13 10:34:51;;;;;;;7.28;3.17;;;;;;;20.59;92.53;95408.72;5018778;28;20033;-78
2021/07/13 10:37:35;;;;;;;4.35;2.70;;;;;;;20.63;91.60;95417.88;5019171;28;20075;-77
2021/07/13 10:40:05;;;;;;;3.92;2.55;;;;;;;20.44;91.39;95419.91;5015505;28;20402;-78
2021/07/13 10:42:45;;;;;;;4.35;2.60;;;;;;;20.14;91.76;95420.19;5035973;28;20036;-77
2021/07/13 10:45:32;;;;;;;5.03;2.97;;;;;;;19.55;94.91;95441.69;5026233;28;20028;-78
2021/07/13 10:48:17;;;;;;;4.45;2.83;;;;;;;19.61;94.53;95458.59;5047001;28;20059;-77
2021/07/13 10:50:59;;;;;;;4.15;2.58;;;;;;;19.42;94.15;95481.13;5031866;28;20052;-78
2021/07/13 10:53:43;;;;;;;5.28;3.13;;;;;;;19.25;96.44;95497.81;5050684;28;20029;-78
2021/07/13 10:56:14;;;;;;;6.78;3.65;;;;;;;18.96;98.70;95517.38;5040929;28;20033;-77
2021/07/13 10:58:44;;;;;;;6.93;5.00;;;;;;;18.56;100.00;95525.91;5046796;28;20037;-77
2021/07/13 11:01:14;;;;;;;7.57;5.35;;;;;;;18.24;100.00;95551.94;5025392;28;20125;-77
2021/07/13 11:03:40;;;;;;;6.55;4.85;;;;;;;17.94;100.00;95573.16;5009463;28;20037;-77
2021/07/13 11:06:16;;;;;;;5.63;1.80;;;;;;;17.05;100.00;95593.75;5030415;28;20071;-77
2021/07/13 11:08:51;;;;;;;3.45;1.35;;;;;;;16.40;100.00;95592.06;5034167;28;20492;-78
2021/07/13 11:11:20;;;;;;;4.50;0.98;;;;;;;16.12;100.00;95596.84;5019034;28;20043;-78
2021/07/13 11:13:48;;;;;;;3.10;0.90;;;;;;;16.21;100.00;95599.06;5023327;28;20036;-78
2021/07/13 11:16:20;;;;;;;0.60;0.30;;;;;;;15.88;100.00;95564.69;5031768;28;20044;-78
2021/07/13 11:18:46;;;;;;;0.17;0.17;;;;;;;16.21;100.00;95556.63;5021627;28;20032;-77
2021/07/13 11:21:22;;;;;;;1.23;0.40;;;;;;;16.02;100.00;95541.59;5059274;28;20021;-77
2021/07/13 11:23:52;;;;;;;11.80;8.07;;;;;;;16.15;100.00;95560.13;5061300;28;20039;-78
2021/07/13 11:26:21;;;;;;;4.65;1.98;;;;;;;15.90;100.00;95570.63;5020823;28;20052;-78
2021/07/13 11:28:56;;;;;;;1.30;0.40;;;;;;;15.84;100.00;95586.53;5025602;28;20190;-79
2021/07/13 11:31:24;;;;;;;0.65;0.20;;;;;;;15.64;100.00;95603.25;5037924;28;20029;-79
2021/07/13 11:33:58;;;;;;;0.55;0.20;;;;;;;15.48;100.00;95616.94;5021325;28;20032;-79
2021/07/13 11:36:29;;;;;;;2.65;0.40;;;;;;;15.54;100.00;95618.78;5021696;28;20063;-80